Time;durP1;ratioP1;P1;durP2;ratioP2;P2;SDS_P1;SDS_P2;PMS_P1;PMS_P2;Temp;Humidity;BMP_temperature;BMP_pressure;BME280_temperature;BME280_humidity;BME280_pressure;Samples;Min_cycle;Max_cycle;Signal;HPM_P1;HPM_P2
2022/11/06 00:00:41;;;;;;;10.00;8.75;;;6.60;99.90;;;;;;5066955;28;20225;-76
2022/11/06 00:03:07;;;;;;;12.68;9.70;;;6.50;99.90;;;;;;5076145;28;20179;-74
2022/11/06 00:08:33;;;;;;;11.63;10.43;;;6.40;99.90;;;;;;5073384;28;20216;-74
2022/11/06 00:10:58;;;;;;;11.13;9.77;;;6.30;99.90;;;;;;5072033;28;20190;-74
2022/11/06 00:13:24;;;;;;;11.20;10.02;;;6.30;99.90;;;;;;5072335;28;20641;-74
2022/11/06 00:15:50;;;;;;;12.27;10.98;;;6.10;99.90;;;;;;5077715;28;20167;-75
2022/11/06 00:18:16;;;;;;;12.95;11.55;;;6.00;99.90;;;;;;5071018;28;20252;-75
2022/11/06 00:20:42;;;;;;;10.77;9.68;;;6.00;99.90;;;;;;5064516;28;20181;-75
2022/11/06 00:23:07;;;;;;;15.75;10.65;;;6.00;99.90;;;;;;5065327;28;20716;-74
2022/11/06 00:25:33;;;;;;;11.20;10.00;;;6.10;99.90;;;;;;5066064;28;20257;-73
2022/11/06 00:27:59;;;;;;;12.77;10.02;;;6.10;99.90;;;;;;5066697;28;20703;-75
2022/11/06 00:30:24;;;;;;;13.80;10.55;;;6.00;99.90;;;;;;5064344;28;20930;-73
2022/11/06 00:32:50;;;;;;;13.85;11.07;;;6.10;99.90;;;;;;5066391;28;20171;-74
2022/11/06 00:35:16;;;;;;;12.60;10.15;;;6.20;99.90;;;;;;5064077;28;20179;-76
2022/11/06 00:37:41;;;;;;;12.52;10.75;;;6.10;99.90;;;;;;5066117;28;20635;-73
2022/11/06 00:40:07;;;;;;;14.10;11.05;;;6.00;99.90;;;;;;5068082;28;20183;-73
2022/11/06 00:42:33;;;;;;;14.68;12.40;;;6.00;99.90;;;;;;5068672;28;20266;-73
2022/11/06 00:44:58;;;;;;;15.40;12.52;;;6.00;99.90;;;;;;5064461;28;20203;-74
2022/11/06 00:47:24;;;;;;;16.67;13.27;;;6.00;99.90;;;;;;5063471;28;20207;-76
2022/11/06 00:49:50;;;;;;;17.63;13.80;;;6.00;99.90;;;;;;5064356;28;20175;-76
2022/11/06 00:52:15;;;;;;;13.65;11.88;;;5.90;99.90;;;;;;5070294;28;20180;-74
2022/11/06 00:54:41;;;;;;;14.50;12.18;;;5.80;99.90;;;;;;5066783;28;20194;-74
2022/11/06 00:57:06;;;;;;;13.27;11.20;;;5.80;99.90;;;;;;5072173;28;20199;-75
2022/11/06 00:59:32;;;;;;;16.45;12.63;;;5.80;99.90;;;;;;5066632;28;20264;-76
2022/11/06 01:01:58;;;;;;;18.20;12.25;;;5.80;99.90;;;;;;5069281;28;20199;-74
2022/11/06 01:04:24;;;;;;;16.70;13.38;;;5.90;99.90;;;;;;5070239;28;20195;-73
2022/11/06 01:06:53;;;;;;;14.02;11.80;;;5.80;99.90;;;;;;5070047;28;20264;-74
2022/11/06 01:09:24;;;;;;;15.95;12.75;;;5.80;99.90;;;;;;5067924;28;20176;-77
2022/11/06 01:11:53;;;;;;;19.98;13.07;;;5.90;99.90;;;;;;5070385;28;20168;-76
2022/11/06 01:14:20;;;;;;;15.20;12.40;;;5.90;99.90;;;;;;5069425;28;20739;-76
2022/11/06 01:16:46;;;;;;;18.50;14.07;;;5.80;99.90;;;;;;5065268;28;20202;-74
2022/11/06 01:19:13;;;;;;;20.60;13.07;;;5.80;99.90;;;;;;5069680;28;20201;-74
2022/11/06 01:21:41;;;;;;;19.92;13.55;;;5.70;99.90;;;;;;5066664;28;20615;-74
2022/11/06 01:24:13;;;;;;;20.00;13.63;;;5.70;99.90;;;;;;5069971;28;20197;-75
2022/11/06 01:26:39;;;;;;;16.85;12.82;;;5.80;99.90;;;;;;5076508;28;20285;-75
2022/11/06 01:29:08;;;;;;;17.42;13.13;;;5.80;99.90;;;;;;5077579;28;20258;-77
2022/11/06 01:31:34;;;;;;;21.55;12.88;;;5.80;99.90;;;;;;5064374;28;20176;-74
2022/11/06 01:34:01;;;;;;;20.92;14.50;;;5.90;99.90;;;;;;5065749;28;20175;-76
2022/11/06 01:36:28;;;;;;;27.73;13.85;;;5.90;99.90;;;;;;5063038;28;20203;-74
2022/11/06 01:38:56;;;;;;;18.02;12.00;;;5.90;99.90;;;;;;5071677;28;20260;-77
2022/11/06 01:41:25;;;;;;;24.50;13.45;;;6.10;99.90;;;;;;5068472;28;20313;-75
2022/11/06 01:44:24;;;;;;;17.52;11.25;;;6.10;99.90;;;;;;5073802;28;20248;-74
2022/11/06 01:46:50;;;;;;;26.00;11.77;;;6.10;99.90;;;;;;5061650;28;20211;-75
2022/11/06 01:49:16;;;;;;;22.13;12.05;;;6.20;99.90;;;;;;5065462;28;20549;-76
2022/11/06 01:51:52;;;;;;;16.25;10.45;;;6.10;99.90;;;;;;5068530;28;20191;-77
2022/11/06 01:54:21;;;;;;;19.73;11.13;;;6.20;99.90;;;;;;5069519;28;20182;-75
2022/11/06 01:56:49;;;;;;;33.17;11.77;;;6.20;99.90;;;;;;5061278;28;20192;-75
2022/11/06 01:59:17;;;;;;;22.38;11.00;;;6.20;99.90;;;;;;5061910;28;20175;-73
2022/11/06 02:01:43;;;;;;;14.15;10.60;;;6.10;99.90;;;;;;5062265;28;20587;-73
2022/11/06 02:04:14;;;;;;;18.88;10.35;;;6.20;99.90;;;;;;5064297;28;20220;-73
2022/11/06 02:06:40;;;;;;;11.90;10.25;;;6.30;99.90;;;;;;5066538;28;20266;-76
2022/11/06 02:09:10;;;;;;;24.42;11.43;;;6.20;99.90;;;;;;5067383;28;20185;-74
2022/11/06 02:11:40;;;;;;;13.57;10.02;;;6.10;99.90;;;;;;5069576;28;20172;-74
2022/11/06 02:14:20;;;;;;;20.65;11.05;;;6.10;99.90;;;;;;5062660;28;20179;-74
2022/11/06 02:16:53;;;;;;;13.75;10.32;;;6.20;99.90;;;;;;5067451;28;20203;-74
2022/11/06 02:19:49;;;;;;;30.35;11.70;;;6.20;99.90;;;;;;5072349;28;20693;-74
2022/11/06 02:22:54;;;;;;;19.25;10.50;;;6.30;99.90;;;;;;5069720;28;20219;-74
2022/11/06 02:25:38;;;;;;;17.48;9.88;;;6.30;99.90;;;;;;5066508;28;20210;-74
2022/11/06 02:28:21;;;;;;;17.50;10.63;;;6.40;99.90;;;;;;5065285;28;20713;-73
2022/11/06 02:30:48;;;;;;;18.55;10.82;;;6.40;99.90;;;;;;5070808;28;20520;-74
2022/11/06 02:33:28;;;;;;;19.63;10.55;;;6.40;99.90;;;;;;5069184;28;20216;-73
2022/11/06 02:36:05;;;;;;;12.35;10.88;;;6.20;99.90;;;;;;5072061;28;20163;-74
2022/11/06 02:38:38;;;;;;;18.05;11.75;;;6.00;99.90;;;;;;5065393;28;20585;-74
2022/11/06 02:41:08;;;;;;;16.05;10.98;;;6.00;99.90;;;;;;5066990;28;20170;-74
2022/11/06 02:43:44;;;;;;;15.93;10.13;;;6.00;99.90;;;;;;5067603;28;20175;-74
2022/11/06 02:46:29;;;;;;;21.00;11.38;;;6.00;99.90;;;;;;5068832;28;20203;-73
2022/11/06 02:49:17;;;;;;;27.23;12.10;;;6.00;99.90;;;;;;5070799;28;20177;-73
2022/11/06 02:51:49;;;;;;;34.30;12.38;;;6.00;99.90;;;;;;5070137;28;20333;-74
2022/11/06 02:54:19;;;;;;;15.52;10.90;;;6.00;99.90;;;;;;5070303;28;20171;-73
2022/11/06 02:56:46;;;;;;;32.65;12.63;;;6.00;99.90;;;;;;5064771;28;20238;-73
2022/11/06 02:59:36;;;;;;;57.65;14.70;;;6.10;99.90;;;;;;5063457;28;20187;-75
2022/11/06 03:02:06;;;;;;;23.75;12.88;;;6.00;99.90;;;;;;5058807;28;20183;-74
2022/11/06 03:04:44;;;;;;;43.03;14.15;;;6.00;99.90;;;;;;5058136;28;20279;-74
2022/11/06 03:07:27;;;;;;;32.05;13.25;;;6.10;99.90;;;;;;5059728;28;20226;-76
2022/11/06 03:09:53;;;;;;;26.42;12.45;;;6.10;99.90;;;;;;5067495;28;20228;-74
2022/11/06 03:12:22;;;;;;;32.35;11.98;;;6.10;99.90;;;;;;5062176;28;20184;-74
2022/11/06 03:15:05;;;;;;;22.75;12.30;;;6.20;99.90;;;;;;5079378;28;20184;-74
2022/11/06 03:17:58;;;;;;;20.55;11.80;;;6.20;99.90;;;;;;5068478;28;20191;-74
2022/11/06 03:20:48;;;;;;;23.45;12.20;;;6.20;99.90;;;;;;5071130;28;20194;-74
2022/11/06 03:23:23;;;;;;;17.42;12.25;;;6.20;99.90;;;;;;5066959;28;20271;-74
2022/11/06 03:26:12;;;;;;;21.45;13.10;;;6.30;99.90;;;;;;5067399;28;20210;-74
2022/11/06 03:28:48;;;;;;;22.60;13.23;;;6.30;99.90;;;;;;5064548;28;20171;-74
2022/11/06 03:31:17;;;;;;;26.48;11.80;;;6.30;99.90;;;;;;5064620;28;20800;-74
2022/11/06 03:33:57;;;;;;;18.58;12.02;;;6.30;99.90;;;;;;5066301;28;20222;-74
2022/11/06 03:36:32;;;;;;;19.70;12.60;;;6.30;99.90;;;;;;5062922;28;20281;-75
2022/11/06 03:39:12;;;;;;;22.38;12.18;;;6.40;99.90;;;;;;5070080;28;20209;-74
2022/11/06 03:41:47;;;;;;;12.77;10.15;;;6.30;99.90;;;;;;5066304;28;20262;-74
2022/11/06 03:44:16;;;;;;;15.50;11.27;;;6.40;99.90;;;;;;5071781;28;20218;-78
2022/11/06 03:46:47;;;;;;;16.30;11.73;;;6.50;99.90;;;;;;5077457;28;20298;-73
2022/11/06 03:49:19;;;;;;;15.90;11.68;;;6.60;99.90;;;;;;5071080;28;20620;-77
2022/11/06 03:52:07;;;;;;;16.02;10.98;;;6.60;99.90;;;;;;5075462;28;20168;-75
2022/11/06 03:54:41;;;;;;;13.10;10.77;;;6.70;99.90;;;;;;5064479;28;20183;-73
2022/11/06 03:57:17;;;;;;;17.23;11.75;;;6.80;99.90;;;;;;5073527;28;20244;-74
2022/11/06 03:59:47;;;;;;;16.33;11.60;;;6.70;99.90;;;;;;5070415;28;20183;-73
2022/11/06 04:02:15;;;;;;;13.93;10.35;;;6.60;99.90;;;;;;5072460;28;20178;-78
2022/11/06 04:04:47;;;;;;;16.30;11.60;;;6.50;99.90;;;;;;5065671;28;20230;-74
2022/11/06 04:07:35;;;;;;;14.13;10.68;;;6.40;99.90;;;;;;5064510;28;20192;-76
2022/11/06 04:15:44;;;;;;;14.25;10.27;;;6.50;99.90;;;;;;5070320;28;20599;-74
2022/11/06 04:18:17;;;;;;;17.77;9.30;;;6.50;99.90;;;;;;5064430;28;20226;-78
2022/11/06 04:27:39;;;;;;;13.23;9.13;;;6.60;99.90;;;;;;5071471;28;20199;-73
2022/11/06 04:30:10;;;;;;;16.40;10.75;;;6.60;99.90;;;;;;5067682;28;20196;-74
2022/11/06 04:32:43;;;;;;;15.65;10.32;;;6.40;99.90;;;;;;5064386;28;20180;-74
2022/11/06 04:35:23;;;;;;;22.65;10.32;;;6.30;99.90;;;;;;5069913;28;20183;-74
2022/11/06 04:38:13;;;;;;;19.52;9.82;;;6.20;99.90;;;;;;5067042;28;20194;-75
2022/11/06 04:40:53;;;;;;;15.27;9.48;;;6.30;99.90;;;;;;5063752;28;20232;-76
2022/11/06 04:43:38;;;;;;;21.80;10.35;;;6.30;99.90;;;;;;5067998;28;20178;-74
2022/11/06 04:46:07;;;;;;;11.95;9.35;;;6.30;99.90;;;;;;5066257;28;20747;-74
2022/11/06 04:48:33;;;;;;;14.88;10.73;;;6.30;99.90;;;;;;5061846;28;20191;-74
2022/11/06 04:51:03;;;;;;;15.38;10.43;;;6.50;99.90;;;;;;5066091;28;20736;-77
2022/11/06 04:53:30;;;;;;;17.08;11.82;;;6.40;99.90;;;;;;5064968;28;20588;-77
2022/11/06 04:56:05;;;;;;;11.93;9.93;;;6.40;99.90;;;;;;5066509;28;20565;-78
2022/11/06 04:58:30;;;;;;;15.52;12.10;;;6.50;99.90;;;;;;5064588;28;20179;-74
2022/11/06 05:00:56;;;;;;;13.70;10.85;;;6.50;99.90;;;;;;5070647;28;20187;-74
2022/11/06 05:03:21;;;;;;;15.82;11.98;;;6.60;99.90;;;;;;5075835;28;20206;-78
2022/11/06 05:05:47;;;;;;;19.15;12.20;;;6.50;99.90;;;;;;5073568;28;20203;-76
2022/11/06 05:08:15;;;;;;;15.90;11.77;;;6.40;99.90;;;;;;5070791;28;20234;-75
2022/11/06 05:10:41;;;;;;;18.05;12.52;;;6.30;99.90;;;;;;5070506;28;20206;-75
2022/11/06 05:13:08;;;;;;;16.17;13.00;;;6.30;99.90;;;;;;5069534;28;20221;-74
2022/11/06 05:15:33;;;;;;;15.43;12.32;;;6.40;99.90;;;;;;5061506;28;20278;-74
2022/11/06 05:17:59;;;;;;;15.50;12.35;;;6.40;99.90;;;;;;5066418;28;20286;-74
2022/11/06 05:20:25;;;;;;;15.52;13.05;;;6.50;99.90;;;;;;5067384;28;20172;-74
2022/11/06 05:22:59;;;;;;;18.45;13.38;;;6.40;99.90;;;;;;5062840;28;20180;-74
2022/11/06 05:25:39;;;;;;;17.75;12.45;;;6.30;99.90;;;;;;5065495;28;20202;-74
2022/11/06 05:28:06;;;;;;;15.65;12.23;;;6.30;99.90;;;;;;5056686;28;20554;-74
2022/11/06 05:30:33;;;;;;;17.13;11.98;;;6.30;99.90;;;;;;5064214;28;20176;-76
2022/11/06 05:32:58;;;;;;;20.30;12.93;;;6.50;99.90;;;;;;5069418;28;20191;-74
2022/11/06 05:35:24;;;;;;;15.90;12.30;;;6.40;99.90;;;;;;5062580;28;20190;-76
2022/11/06 05:37:49;;;;;;;24.85;12.95;;;6.40;99.90;;;;;;5066288;28;20608;-74
2022/11/06 05:40:15;;;;;;;18.25;12.13;;;6.30;99.90;;;;;;5069850;28;20195;-74
2022/11/06 05:42:43;;;;;;;17.05;11.23;;;6.40;99.90;;;;;;5062232;28;20206;-74
2022/11/06 05:45:10;;;;;;;19.05;11.18;;;6.40;99.90;;;;;;5063399;28;20204;-77
2022/11/06 05:47:39;;;;;;;44.45;13.00;;;6.30;99.90;;;;;;5065304;28;20236;-73
2022/11/06 05:50:06;;;;;;;13.57;10.68;;;6.20;99.90;;;;;;5062785;28;20597;-81
2022/11/06 05:52:34;;;;;;;21.42;12.38;;;6.20;99.90;;;;;;5061396;28;20679;-74
2022/11/06 05:54:59;;;;;;;17.52;10.90;;;6.20;99.90;;;;;;5066469;28;20231;-74
2022/11/06 05:57:25;;;;;;;20.33;11.10;;;6.10;99.90;;;;;;5064871;28;20207;-74
2022/11/06 05:59:50;;;;;;;14.50;10.75;;;6.10;99.90;;;;;;5069286;28;20179;-77
2022/11/06 06:02:16;;;;;;;24.15;12.23;;;6.10;99.90;;;;;;5068387;28;20236;-74
2022/11/06 06:04:42;;;;;;;13.88;10.45;;;6.00;99.90;;;;;;5066651;28;20203;-74
2022/11/06 06:07:08;;;;;;;16.10;10.63;;;6.10;99.90;;;;;;5061204;28;20791;-74
2022/11/06 06:09:33;;;;;;;19.02;9.77;;;6.20;99.90;;;;;;5061575;28;20254;-74
2022/11/06 06:11:59;;;;;;;36.63;10.35;;;6.20;99.90;;;;;;5066573;28;20309;-76
2022/11/06 06:14:25;;;;;;;35.08;12.27;;;6.20;99.90;;;;;;5062841;28;20215;-76
2022/11/06 06:16:51;;;;;;;20.10;10.30;;;6.20;99.90;;;;;;5060938;28;20238;-74
2022/11/06 06:19:16;;;;;;;32.17;10.77;;;6.30;99.90;;;;;;5069605;28;20183;-74
2022/11/06 06:21:42;;;;;;;27.73;10.68;;;6.30;99.90;;;;;;5068467;28;20183;-74
2022/11/06 06:24:07;;;;;;;15.25;10.23;;;6.30;99.90;;;;;;5064562;28;20548;-75
2022/11/06 06:26:33;;;;;;;14.02;10.30;;;6.30;99.90;;;;;;5065192;28;20195;-79
2022/11/06 06:28:58;;;;;;;21.20;10.25;;;6.20;99.90;;;;;;5066338;28;20194;-76
2022/11/06 06:31:25;;;;;;;19.38;9.05;;;6.10;99.90;;;;;;5066564;28;20656;-76
2022/11/06 06:33:50;;;;;;;20.33;10.38;;;6.20;99.90;;;;;;5065296;28;20181;-78
2022/11/06 06:36:16;;;;;;;30.40;10.13;;;6.10;99.90;;;;;;5064741;28;20175;-75
2022/11/06 06:38:42;;;;;;;23.30;9.00;;;6.10;99.90;;;;;;5068069;28;20250;-76
2022/11/06 06:41:08;;;;;;;17.13;10.02;;;6.10;99.90;;;;;;5068312;28;20254;-76
2022/11/06 06:43:34;;;;;;;20.05;9.40;;;6.10;99.90;;;;;;5062030;28;20725;-76
2022/11/06 06:46:02;;;;;;;15.85;8.85;;;6.00;99.90;;;;;;5061378;28;20207;-75
2022/11/06 06:48:28;;;;;;;22.50;8.45;;;6.00;99.90;;;;;;5057562;28;20179;-76
2022/11/06 06:51:01;;;;;;;16.38;8.57;;;6.10;99.90;;;;;;5064027;28;20257;-76
2022/11/06 06:53:26;;;;;;;15.30;9.20;;;6.10;99.90;;;;;;5058323;28;20210;-76
2022/11/06 06:55:52;;;;;;;23.88;9.98;;;6.20;99.90;;;;;;5058225;28;20692;-78
2022/11/06 06:58:18;;;;;;;14.63;10.10;;;6.20;99.90;;;;;;5057792;28;20215;-76
2022/11/06 07:00:43;;;;;;;12.43;9.80;;;6.30;99.90;;;;;;5061387;28;20587;-76
2022/11/06 07:03:09;;;;;;;14.02;10.50;;;6.30;99.90;;;;;;5063191;28;20184;-74
2022/11/06 07:05:35;;;;;;;16.58;9.20;;;6.30;99.90;;;;;;5066644;28;20206;-75
2022/11/06 07:08:01;;;;;;;15.50;10.23;;;6.20;99.90;;;;;;5067456;28;20199;-76
2022/11/06 07:10:26;;;;;;;12.85;9.82;;;6.20;99.90;;;;;;5060227;28;20237;-76
2022/11/06 07:12:52;;;;;;;11.23;9.05;;;6.30;99.90;;;;;;5062352;28;20190;-76
2022/11/06 07:15:18;;;;;;;13.68;9.50;;;6.50;99.90;;;;;;5063723;28;20186;-76
2022/11/06 07:17:43;;;;;;;10.80;8.93;;;6.60;99.90;;;;;;5054497;28;20211;-75
2022/11/06 07:20:09;;;;;;;11.30;9.75;;;6.70;99.90;;;;;;5056867;28;20222;-76
2022/11/06 07:22:35;;;;;;;20.85;10.77;;;6.80;99.90;;;;;;5061436;28;20263;-76
2022/11/06 07:25:01;;;;;;;13.55;10.55;;;6.80;99.90;;;;;;5065576;28;20340;-79
2022/11/06 07:27:27;;;;;;;13.40;9.95;;;6.70;99.90;;;;;;5056681;28;20827;-77
2022/11/06 07:29:53;;;;;;;14.13;10.07;;;6.60;99.90;;;;;;5063113;28;20958;-79
2022/11/06 07:32:19;;;;;;;13.95;10.10;;;6.70;99.90;;;;;;5067439;28;20190;-75
2022/11/06 07:34:45;;;;;;;20.58;11.68;;;6.80;99.90;;;;;;5059646;28;20281;-75
2022/11/06 07:37:10;;;;;;;17.77;11.18;;;6.80;99.90;;;;;;5054993;28;20237;-78
2022/11/06 07:39:36;;;;;;;17.05;10.98;;;6.80;99.90;;;;;;5061902;28;20183;-77
2022/11/06 07:42:02;;;;;;;13.88;10.90;;;6.80;99.90;;;;;;5055338;28;20277;-77
2022/11/06 07:44:27;;;;;;;13.48;10.40;;;6.80;99.90;;;;;;5061746;28;20697;-78
2022/11/06 07:46:53;;;;;;;16.17;10.20;;;6.90;99.90;;;;;;5062449;28;20194;-77
2022/11/06 07:49:18;;;;;;;14.65;11.10;;;7.00;99.90;;;;;;5055454;28;20237;-77
2022/11/06 07:51:44;;;;;;;12.70;10.13;;;7.10;99.90;;;;;;5065613;28;20172;-77
2022/11/06 07:54:10;;;;;;;13.25;10.43;;;7.10;99.90;;;;;;5071185;28;20565;-77
2022/11/06 07:56:36;;;;;;;12.55;10.10;;;7.10;99.90;;;;;;5060549;28;20204;-77
2022/11/06 07:59:03;;;;;;;12.70;10.05;;;7.20;99.90;;;;;;5067363;28;20700;-77
2022/11/06 08:01:28;;;;;;;18.15;11.00;;;7.30;99.90;;;;;;5075316;28;20619;-77
2022/11/06 08:03:54;;;;;;;15.98;11.50;;;7.30;99.90;;;;;;5067298;28;20210;-77
2022/11/06 08:06:19;;;;;;;13.98;10.10;;;7.30;99.90;;;;;;5080172;28;20417;-77
2022/11/06 08:08:45;;;;;;;16.30;10.80;;;7.30;99.90;;;;;;5069545;28;20195;-77
2022/11/06 08:11:11;;;;;;;20.00;11.80;;;7.40;99.90;;;;;;5073745;28;20650;-77
2022/11/06 08:13:37;;;;;;;20.13;11.52;;;7.50;99.90;;;;;;5072821;28;20179;-77
2022/11/06 08:16:04;;;;;;;22.13;11.40;;;7.50;99.90;;;;;;5071268;28;20261;-77
2022/11/06 08:18:30;;;;;;;15.82;11.93;;;7.40;99.90;;;;;;5068548;28;20238;-77
2022/11/06 08:20:55;;;;;;;15.95;11.23;;;7.40;99.90;;;;;;5070172;28;20725;-77
2022/11/06 08:23:21;;;;;;;15.43;12.25;;;7.40;99.90;;;;;;5062685;28;20179;-77
2022/11/06 08:25:47;;;;;;;17.38;12.00;;;7.50;99.90;;;;;;5073737;28;20250;-76
2022/11/06 08:28:12;;;;;;;14.57;11.70;;;7.70;99.90;;;;;;5070823;28;20261;-76
2022/11/06 08:30:38;;;;;;;14.40;10.38;;;7.90;99.90;;;;;;5061784;28;20288;-76
2022/11/06 08:33:07;;;;;;;17.60;12.80;;;8.00;99.90;;;;;;5060749;28;20196;-76
2022/11/06 08:35:36;;;;;;;18.00;12.55;;;8.10;99.90;;;;;;5057867;28;20180;-76
2022/11/06 08:38:02;;;;;;;19.30;13.07;;;8.00;99.90;;;;;;5063159;28;20207;-77
2022/11/06 08:40:28;;;;;;;16.27;11.05;;;7.90;99.90;;;;;;5063454;28;20179;-76
2022/11/06 08:42:58;;;;;;;15.95;12.63;;;8.00;99.90;;;;;;5071500;28;20179;-78
2022/11/06 08:45:24;;;;;;;19.27;13.25;;;8.00;99.90;;;;;;5062072;28;20673;-78
2022/11/06 08:47:50;;;;;;;18.27;13.63;;;8.20;99.90;;;;;;5068723;28;20626;-77
2022/11/06 08:50:15;;;;;;;15.00;12.95;;;8.20;99.90;;;;;;5080990;28;20222;-77
2022/11/06 08:52:41;;;;;;;19.38;13.43;;;8.30;99.90;;;;;;5080920;28;20176;-77
2022/11/06 08:55:07;;;;;;;16.45;13.07;;;8.40;99.90;;;;;;5069249;28;20301;-77
2022/11/06 08:57:34;;;;;;;16.85;13.80;;;8.40;99.90;;;;;;5064914;28;20203;-77
2022/11/06 08:59:59;;;;;;;17.23;13.13;;;8.50;99.90;;;;;;5062598;28;20183;-78
2022/11/06 09:02:25;;;;;;;17.85;13.90;;;8.50;99.90;;;;;;5065678;28;20261;-77
2022/11/06 09:04:51;;;;;;;19.15;14.48;;;8.70;99.90;;;;;;5070538;28;20210;-79
2022/11/06 09:07:20;;;;;;;17.20;13.57;;;8.70;99.90;;;;;;5067631;28;20248;-78
2022/11/06 09:09:46;;;;;;;17.83;13.07;;;8.80;99.90;;;;;;5069326;28;20195;-78
2022/11/06 09:12:11;;;;;;;15.48;13.73;;;9.10;99.90;;;;;;5066412;28;20188;-77
2022/11/06 09:14:38;;;;;;;18.58;14.73;;;9.30;99.90;;;;;;5067198;28;20188;-78
2022/11/06 09:17:04;;;;;;;15.98;13.52;;;9.60;99.90;;;;;;5065890;28;20241;-77
2022/11/06 09:19:30;;;;;;;15.30;12.55;;;9.80;99.90;;;;;;5063956;28;20641;-76
2022/11/06 09:21:56;;;;;;;19.33;15.07;;;10.00;99.90;;;;;;5066879;28;20217;-76
2022/11/06 09:24:22;;;;;;;16.83;14.15;;;9.80;99.90;;;;;;5066172;28;20199;-76
2022/11/06 09:26:47;;;;;;;17.17;14.05;;;9.80;99.90;;;;;;5064794;28;20232;-76
2022/11/06 09:29:13;;;;;;;15.90;12.68;;;9.60;99.90;;;;;;5065747;28;20183;-74
2022/11/06 09:31:39;;;;;;;15.18;13.35;;;9.50;99.90;;;;;;5062643;28;20183;-77
2022/11/06 09:34:05;;;;;;;16.60;14.30;;;9.70;99.90;;;;;;5067949;28;20175;-79
2022/11/06 09:36:31;;;;;;;17.50;15.05;;;9.60;99.90;;;;;;5061279;28;20214;-76
2022/11/06 09:38:57;;;;;;;18.75;15.75;;;9.70;99.90;;;;;;5075469;28;20183;-75
2022/11/06 09:41:30;;;;;;;16.35;13.50;;;9.70;99.90;;;;;;5068756;28;20191;-76
2022/11/06 09:44:31;;;;;;;17.08;13.07;;;9.70;99.90;;;;;;5062793;28;20730;-75
2022/11/06 09:46:59;;;;;;;17.85;14.90;;;9.90;99.90;;;;;;5060364;28;20243;-75
2022/11/06 09:49:40;;;;;;;14.80;13.10;;;10.20;99.90;;;;;;5058843;28;20172;-75
2022/11/06 09:52:36;;;;;;;16.95;14.25;;;10.20;99.90;;;;;;5070579;28;20252;-74
2022/11/06 09:55:30;;;;;;;15.52;13.88;;;10.20;99.90;;;;;;5072554;28;20179;-77
2022/11/06 09:58:00;;;;;;;13.88;12.15;;;10.10;99.90;;;;;;5060738;28;20693;-75
2022/11/06 10:00:26;;;;;;;14.55;12.95;;;10.00;99.90;;;;;;5058195;28;20214;-77
2022/11/06 10:03:01;;;;;;;12.65;11.32;;;9.80;99.90;;;;;;5071177;28;20183;-79
2022/11/06 10:05:36;;;;;;;10.98;9.98;;;9.80;99.90;;;;;;5061962;28;20242;-76
2022/11/06 10:08:12;;;;;;;11.27;10.02;;;9.70;99.90;;;;;;5065819;28;20210;-76
2022/11/06 10:10:54;;;;;;;14.68;10.80;;;9.60;99.90;;;;;;5062767;28;20237;-78
2022/11/06 10:13:51;;;;;;;12.70;11.40;;;9.70;99.90;;;;;;5064362;28;20606;-77
2022/11/06 10:16:33;;;;;;;11.45;10.35;;;9.80;99.90;;;;;;5064824;28;20187;-75
2022/11/06 10:19:05;;;;;;;10.88;9.77;;;9.80;99.90;;;;;;5067989;28;20184;-75
2022/11/06 10:21:38;;;;;;;11.63;10.43;;;10.00;99.90;;;;;;5065796;28;20182;-75
2022/11/06 10:24:19;;;;;;;11.18;10.13;;;10.10;99.90;;;;;;5063739;28;20194;-79
2022/11/06 10:26:54;;;;;;;13.30;10.60;;;10.10;99.90;;;;;;5063912;28;20738;-75
2022/11/06 10:30:07;;;;;;;12.38;11.18;;;10.00;99.90;;;;;;5073044;28;20183;-78
2022/11/06 10:32:45;;;;;;;11.00;9.88;;;9.90;99.90;;;;;;5068780;28;20262;-75
2022/11/06 10:35:20;;;;;;;12.68;11.30;;;10.10;99.90;;;;;;5047250;28;20175;-76
2022/11/06 10:38:07;;;;;;;12.95;11.63;;;10.20;99.90;;;;;;5060008;28;20229;-75
2022/11/06 10:40:34;;;;;;;12.00;10.85;;;10.10;99.90;;;;;;5062414;28;20234;-80
2022/11/06 10:43:27;;;;;;;13.32;11.93;;;10.30;99.90;;;;;;5058380;28;20868;-76
2022/11/06 10:46:15;;;;;;;13.00;11.60;;;10.30;99.90;;;;;;5066542;28;20214;-78
2022/11/06 10:48:50;;;;;;;13.25;11.93;;;10.30;99.90;;;;;;5061943;28;20635;-78
2022/11/06 10:51:21;;;;;;;14.35;12.38;;;10.30;99.90;;;;;;5062018;28;20205;-75
2022/11/06 10:53:59;;;;;;;13.63;12.23;;;10.20;99.90;;;;;;5060632;28;20168;-78
2022/11/06 10:56:59;;;;;;;13.40;11.45;;;10.10;99.90;;;;;;5062489;28;20198;-75
2022/11/06 10:59:25;;;;;;;14.05;11.93;;;9.80;99.90;;;;;;5064475;28;20207;-75
2022/11/06 11:01:51;;;;;;;13.70;12.35;;;9.80;99.90;;;;;;5056267;28;20218;-76
2022/11/06 11:04:16;;;;;;;12.88;11.52;;;9.90;99.90;;;;;;5062033;28;20228;-75
2022/11/06 11:06:42;;;;;;;13.73;11.73;;;9.90;99.90;;;;;;5059271;28;20242;-77
2022/11/06 11:09:30;;;;;;;13.10;11.73;;;10.10;99.90;;;;;;5059997;28;20220;-76
2022/11/06 11:11:56;;;;;;;12.95;11.57;;;10.10;99.90;;;;;;5066820;28;20272;-76
2022/11/06 11:14:29;;;;;;;13.48;12.07;;;10.20;99.90;;;;;;5070941;28;20654;-76
2022/11/06 11:17:00;;;;;;;13.48;12.00;;;10.30;99.90;;;;;;5070560;28;20626;-76
2022/11/06 11:19:40;;;;;;;14.93;12.93;;;10.30;99.90;;;;;;5068631;28;20195;-77
2022/11/06 11:22:15;;;;;;;12.38;11.07;;;10.50;99.90;;;;;;5071638;28;20174;-78
2022/11/06 11:25:22;;;;;;;13.52;12.13;;;10.50;99.90;;;;;;5063515;28;20190;-78
2022/11/06 11:27:48;;;;;;;13.18;11.88;;;10.80;99.90;;;;;;5069131;28;20215;-78
2022/11/06 11:30:25;;;;;;;13.55;12.20;;;11.00;99.90;;;;;;5066864;28;20270;-80
2022/11/06 11:32:52;;;;;;;12.95;11.43;;;11.00;99.90;;;;;;5079461;28;20175;-77
2022/11/06 11:35:23;;;;;;;13.02;11.73;;;11.20;99.90;;;;;;5067524;28;20186;-77
2022/11/06 11:37:49;;;;;;;12.57;11.32;;;11.30;99.90;;;;;;5065619;28;20222;-77
2022/11/06 11:40:35;;;;;;;12.57;11.27;;;11.40;99.90;;;;;;5065784;28;20183;-78
2022/11/06 11:43:18;;;;;;;10.55;9.55;;;11.60;99.90;;;;;;5070873;28;20537;-77
2022/11/06 11:46:04;;;;;;;9.82;8.90;;;11.60;99.90;;;;;;5060144;28;20203;-77
2022/11/06 11:48:45;;;;;;;9.77;8.88;;;11.80;99.90;;;;;;5076474;28;20240;-77
2022/11/06 11:51:37;;;;;;;9.23;8.32;;;12.10;99.90;;;;;;5068592;28;20175;-76
2022/11/06 11:54:11;;;;;;;9.32;8.38;;;12.30;99.90;;;;;;5063547;28;20810;-76
2022/11/06 11:56:53;;;;;;;9.88;8.98;;;12.30;99.90;;;;;;5068296;28;20194;-77
2022/11/06 11:59:40;;;;;;;9.43;8.52;;;12.30;99.90;;;;;;5063314;28;20227;-76
2022/11/06 12:02:48;;;;;;;9.52;8.73;;;12.40;99.90;;;;;;5072835;28;20174;-78
2022/11/06 12:05:46;;;;;;;;;;;;;;;;;;;;;
2022/11/06 12:08:22;;;;;;;10.15;9.23;;;12.00;99.90;;;;;;5073555;28;20205;-77
2022/11/06 12:10:49;;;;;;;8.82;8.00;;;12.10;99.90;;;;;;5079867;28;20190;-78
2022/11/06 12:13:56;;;;;;;8.93;8.13;;;12.20;99.90;;;;;;5080855;28;20179;-80
2022/11/06 12:16:22;;;;;;;9.63;8.70;;;12.20;99.90;;;;;;5071784;28;20179;-78
2022/11/06 12:18:54;;;;;;;9.52;8.43;;;12.30;99.90;;;;;;5073278;28;20249;-78
2022/11/06 12:21:26;;;;;;;8.40;7.70;;;12.60;99.90;;;;;;5068414;28;20169;-76
2022/11/06 12:24:10;;;;;;;9.07;8.27;;;13.00;99.90;;;;;;5073624;28;20183;-77
2022/11/06 12:26:59;;;;;;;8.10;7.40;;;13.50;99.90;;;;;;5078174;28;20190;-76
2022/11/06 12:29:39;;;;;;;8.55;7.50;;;13.60;99.90;;;;;;5075029;28;20195;-76
2022/11/06 12:32:46;;;;;;;8.93;8.13;;;13.60;99.90;;;;;;5080373;28;20178;-77
2022/11/06 12:35:31;;;;;;;8.38;7.63;;;13.80;99.90;;;;;;5071888;28;20324;-75
2022/11/06 12:38:35;;;;;;;8.32;7.53;;;13.90;99.90;;;;;;5065330;28;20200;-75
2022/11/06 12:41:09;;;;;;;7.70;6.93;;;13.60;99.90;;;;;;5068748;28;20274;-75
2022/11/06 12:43:45;;;;;;;8.43;7.72;;;13.50;99.90;;;;;;5067137;28;20205;-75
2022/11/06 12:46:48;;;;;;;7.22;6.63;;;14.20;99.90;;;;;;5066787;28;20199;-75
2022/11/06 12:49:37;;;;;;;7.03;6.47;;;15.20;99.90;;;;;;5068014;28;20603;-77
2022/11/06 12:52:38;;;;;;;7.60;7.00;;;16.20;99.90;;;;;;5062721;28;20184;-76
2022/11/06 12:55:17;;;;;;;7.47;6.75;;;16.40;99.90;;;;;;5065410;28;20674;-78
2022/11/06 12:57:46;;;;;;;8.00;7.13;;;16.40;99.90;;;;;;5068080;28;20238;-76
2022/11/06 13:00:17;;;;;;;7.53;6.93;;;16.20;99.90;;;;;;5075980;28;20179;-75
2022/11/06 13:03:11;;;;;;;8.15;7.13;;;15.70;99.90;;;;;;5078056;28;20684;-80
2022/11/06 13:05:53;;;;;;;10.30;9.02;;;15.30;99.90;;;;;;5075910;28;20195;-79
2022/11/06 13:08:54;;;;;;;7.95;7.15;;;15.10;99.90;;;;;;5073710;28;20545;-77
2022/11/06 13:11:38;;;;;;;8.25;7.55;;;15.00;99.90;;;;;;5071381;28;20190;-78
2022/11/06 13:14:17;;;;;;;7.85;7.22;;;14.70;99.90;;;;;;5073310;28;20168;-80
2022/11/06 13:16:56;;;;;;;7.50;6.90;;;14.40;99.90;;;;;;5078923;28;20223;-79
2022/11/06 13:19:37;;;;;;;7.20;6.60;;;14.20;99.90;;;;;;5066711;28;20171;-78